createdAt,value
2019-03-17T00:00:53.228Z,72.70
2019-03-17T00:03:23.654Z,71.99
2019-03-17T00:05:54.103Z,72.14
2019-03-17T00:08:24.887Z,72.52
2019-03-17T00:10:55.738Z,72.30
2019-03-17T00:13:26.169Z,73.01
2019-03-17T00:15:56.634Z,72.67
2019-03-17T00:18:27.112Z,71.89
2019-03-17T00:20:57.536Z,72.03
2019-03-17T00:23:27.994Z,71.92
2019-03-17T00:25:58.829Z,72.58
2019-03-17T00:28:29.295Z,73.11
2019-03-17T00:30:59.757Z,72.52
2019-03-17T00:33:30.173Z,72.56
2019-03-17T00:36:00.635Z,73.16
2019-03-17T00:38:31.063Z,72.86
2019-03-17T00:41:01.511Z,72.43
2019-03-17T00:43:31.963Z,73.07
2019-03-17T00:46:02.731Z,72.65
2019-03-17T00:48:33.155Z,73.16
2019-03-17T00:51:03.632Z,72.56
2019-03-17T00:53:34.778Z,72.78
2019-03-17T00:56:05.199Z,73.21
2019-03-17T00:58:36.542Z,72.71
2019-03-17T01:01:07.299Z,73.37
2019-03-17T01:03:38.036Z,73.37
2019-03-17T01:06:08.803Z,73.43
2019-03-17T01:08:39.230Z,72.27
2019-03-17T01:11:09.651Z,72.94
2019-03-17T01:13:40.103Z,73.18
2019-03-17T01:16:10.534Z,73.44
2019-03-17T01:18:41.292Z,73.36
2019-03-17T01:21:12.483Z,72.88
2019-03-17T01:23:42.902Z,73.02
2019-03-17T01:26:13.379Z,73.24
2019-03-17T01:28:43.806Z,72.93
2019-03-17T01:31:14.642Z,72.77
2019-03-17T01:33:45.111Z,72.70
2019-03-17T01:36:15.543Z,73.04
2019-03-17T01:38:45.969Z,73.28
2019-03-17T01:41:16.415Z,73.19
2019-03-17T01:43:47.168Z,72.76
2019-03-17T01:46:17.625Z,73.29
2019-03-17T01:48:48.041Z,72.74
2019-03-17T01:51:19.170Z,73.48
2019-03-17T01:53:49.871Z,73.59
2019-03-17T01:56:20.295Z,73.63
2019-03-17T01:58:50.791Z,72.83
2019-03-17T02:01:21.224Z,72.80
2019-03-17T02:03:51.647Z,73.09
2019-03-17T02:06:22.093Z,72.95
2019-03-17T02:08:52.515Z,72.93
2019-03-17T02:11:22.983Z,72.70
2019-03-17T02:13:53.410Z,72.80
2019-03-17T02:16:23.845Z,72.70
2019-03-17T02:18:54.399Z,73.01
2019-03-17T02:21:24.831Z,72.61
2019-03-17T02:23:55.255Z,72.76
2019-03-17T02:26:25.724Z,72.21
2019-03-17T02:28:56.149Z,72.02
2019-03-17T02:31:26.597Z,70.93
2019-03-17T02:33:57.425Z,71.36
2019-03-17T02:36:28.011Z,72.14
2019-03-17T02:38:58.872Z,72.27
2019-03-17T02:41:30.019Z,72.42
2019-03-17T02:44:00.747Z,72.46
2019-03-17T02:46:31.210Z,72.58
2019-03-17T02:49:02.340Z,72.43
2019-03-17T02:51:33.175Z,72.22
2019-03-17T02:54:04.398Z,72.10
2019-03-17T02:56:34.857Z,72.03
2019-03-17T02:59:05.950Z,71.86
2019-03-17T03:01:36.428Z,72.15
2019-03-17T03:04:06.855Z,72.52
2019-03-17T03:06:37.286Z,72.36
2019-03-17T03:09:09.140Z,71.96
2019-03-17T03:11:39.620Z,72.23
2019-03-17T03:14:10.452Z,72.12
2019-03-17T03:16:40.888Z,72.46
2019-03-17T03:19:11.326Z,72.49
2019-03-17T03:21:41.784Z,72.88
2019-03-17T03:24:12.641Z,73.35
2019-03-17T03:26:43.410Z,73.13
2019-03-17T03:29:14.708Z,73.39
2019-03-17T03:31:45.189Z,73.40
2019-03-17T03:34:15.634Z,73.62
2019-03-17T03:36:46.065Z,73.60
2019-03-17T03:39:16.488Z,73.65
2019-03-17T03:41:47.261Z,73.38
2019-03-17T03:44:17.672Z,73.19
2019-03-17T03:46:48.144Z,73.65
2019-03-17T03:49:18.569Z,73.41
2019-03-17T03:51:49.004Z,73.74
2019-03-17T03:54:19.457Z,73.47
2019-03-17T03:56:50.695Z,73.30
2019-03-17T03:59:21.248Z,73.37
2019-03-17T04:01:51.682Z,73.45
2019-03-17T04:04:22.429Z,73.42
2019-03-17T04:06:52.853Z,73.67
2019-03-17T04:09:23.317Z,73.61
2019-03-17T04:11:54.077Z,73.47
2019-03-17T04:14:24.547Z,74.14
2019-03-17T04:16:55.354Z,74.52
2019-03-17T04:19:25.780Z,74.13
2019-03-17T04:21:56.276Z,74.23
2019-03-17T04:24:26.707Z,74.72
2019-03-17T04:26:57.139Z,74.49
2019-03-17T04:29:27.616Z,73.70
2019-03-17T04:31:58.085Z,74.12
2019-03-17T04:34:28.511Z,73.76
2019-03-17T04:36:59.322Z,74.27
2019-03-17T04:39:29.744Z,74.00
2019-03-17T04:42:00.208Z,73.74
2019-03-17T04:44:31.010Z,74.00
2019-03-17T04:47:01.444Z,74.30
2019-03-17T04:49:31.927Z,74.43
2019-03-17T04:52:03.115Z,74.75
2019-03-17T04:54:33.935Z,75.01
2019-03-17T04:57:04.388Z,75.06
2019-03-17T04:59:35.551Z,75.07
2019-03-17T05:02:06.016Z,75.09
2019-03-17T05:04:36.438Z,75.64
2019-03-17T05:07:07.253Z,75.22
2019-03-17T05:09:37.994Z,75.52
2019-03-17T05:12:08.439Z,75.28
2019-03-17T05:14:38.863Z,75.08
2019-03-17T05:17:09.750Z,75.03
2019-03-17T05:19:40.219Z,75.00
2019-03-17T05:22:10.652Z,74.86
2019-03-17T05:24:41.376Z,75.34
2019-03-17T05:27:12.839Z,75.07
2019-03-17T05:29:43.265Z,75.20
2019-03-17T05:32:13.720Z,74.76
2019-03-17T05:34:44.894Z,75.13
2019-03-17T05:37:15.395Z,74.83
2019-03-17T05:39:45.829Z,75.08
2019-03-17T05:42:16.308Z,74.60
2019-03-17T05:44:47.544Z,74.38
2019-03-17T05:47:18.016Z,75.16
2019-03-17T05:49:48.784Z,75.19
2019-03-17T05:52:19.211Z,74.92
2019-03-17T05:54:50.001Z,74.38
2019-03-17T05:57:20.481Z,74.56
2019-03-17T05:59:50.906Z,74.95
2019-03-17T06:02:21.595Z,75.12
2019-03-17T06:04:52.097Z,74.36
2019-03-17T06:07:22.504Z,73.84
2019-03-17T06:09:52.931Z,72.88
2019-03-17T06:12:23.403Z,73.61
2019-03-17T06:14:55.060Z,74.25
2019-03-17T06:17:25.580Z,73.91
2019-03-17T06:19:56.057Z,73.45
2019-03-17T06:22:26.471Z,73.32
2019-03-17T06:24:57.173Z,73.07
2019-03-17T06:27:27.973Z,72.23
2019-03-17T06:29:58.402Z,73.21
2019-03-17T06:32:28.832Z,73.19
2019-03-17T06:34:59.312Z,72.93
2019-03-17T06:37:31.274Z,73.41
2019-03-17T06:40:01.892Z,72.61
2019-03-17T06:42:32.360Z,73.24
2019-03-17T06:45:03.078Z,73.35
2019-03-17T06:47:33.775Z,73.41
2019-03-17T06:50:04.563Z,72.86
2019-03-17T06:52:34.982Z,72.68
2019-03-17T06:55:05.926Z,73.10
2019-03-17T06:57:37.069Z,72.62
2019-03-17T07:00:07.771Z,72.84
2019-03-17T07:02:38.203Z,73.02
2019-03-17T07:05:09.402Z,73.20
2019-03-17T07:07:44.435Z,72.58
2019-03-17T07:10:12.073Z,72.31
2019-03-17T07:12:42.552Z,72.34
2019-03-17T07:15:13.291Z,72.16
2019-03-17T07:17:44.141Z,72.08
2019-03-17T07:20:14.653Z,72.01
2019-03-17T07:22:45.066Z,72.03
2019-03-17T07:25:15.501Z,72.55
2019-03-17T07:27:45.972Z,72.24
2019-03-17T07:30:16.591Z,71.79
2019-03-17T07:32:47.015Z,72.52
2019-03-17T07:35:17.500Z,72.62
2019-03-17T07:37:56.830Z,71.93
2019-03-17T07:40:20.563Z,72.35
2019-03-17T07:42:51.038Z,72.00
2019-03-17T07:45:21.459Z,72.69
2019-03-17T07:47:51.883Z,71.95
2019-03-17T07:50:22.369Z,72.21
2019-03-17T07:52:53.120Z,72.20
2019-03-17T07:55:23.547Z,72.17
2019-03-17T07:57:54.396Z,71.32
2019-03-17T08:00:31.778Z,72.05
2019-03-17T08:02:56.985Z,72.97
2019-03-17T08:05:27.465Z,72.34
2019-03-17T08:08:08.866Z,72.46
2019-03-17T08:10:30.343Z,72.86
2019-03-17T08:13:00.830Z,72.73
2019-03-17T08:15:31.257Z,73.45
2019-03-17T08:18:01.684Z,73.53
2019-03-17T08:20:32.556Z,74.40
2019-03-17T08:23:02.991Z,75.46
2019-03-17T08:25:33.415Z,74.48
2019-03-17T08:28:04.723Z,75.84
2019-03-17T08:30:35.263Z,75.70
2019-03-17T08:33:05.999Z,76.17
2019-03-17T08:35:37.247Z,76.35
2019-03-17T08:38:07.683Z,76.26
2019-03-17T08:40:38.526Z,77.83
2019-03-17T08:43:09.771Z,77.08
2019-03-17T08:45:40.199Z,76.22
2019-03-17T08:48:10.631Z,76.57
2019-03-17T08:50:41.177Z,77.43
2019-03-17T08:53:11.593Z,77.70
2019-03-17T08:55:42.035Z,77.75
2019-03-17T08:58:13.512Z,77.08
2019-03-17T09:00:44.416Z,76.53
2019-03-17T09:03:15.120Z,77.82
2019-03-17T09:05:45.668Z,78.20
2019-03-17T09:08:16.457Z,78.13
2019-03-17T09:10:47.363Z,79.02
2019-03-17T09:13:19.536Z,79.91
2019-03-17T09:15:50.686Z,79.46
2019-03-17T09:18:21.522Z,79.60
2019-03-17T09:20:52.301Z,78.93
2019-03-17T09:23:22.743Z,78.99
2019-03-17T09:25:53.568Z,79.07
2019-03-17T09:28:24.219Z,76.87
2019-03-17T09:30:54.664Z,77.72
2019-03-17T09:33:25.428Z,78.31
2019-03-17T09:35:56.266Z,78.29
2019-03-17T09:38:27.503Z,77.52
2019-03-17T09:40:58.303Z,79.20
2019-03-17T09:43:28.780Z,80.00
2019-03-17T09:45:59.224Z,79.05
2019-03-17T09:48:29.952Z,80.62
2019-03-17T09:51:00.788Z,81.25
2019-03-17T09:53:31.556Z,81.82
2019-03-17T09:56:02.035Z,79.36
2019-03-17T09:58:35.701Z,80.38
2019-03-17T10:01:06.876Z,82.49
2019-03-17T10:03:37.765Z,83.49
2019-03-17T10:06:08.532Z,83.44
2019-03-17T10:08:38.970Z,83.61
2019-03-17T10:11:10.716Z,84.29
2019-03-17T10:13:42.083Z,84.66
2019-03-17T10:16:13.104Z,85.01
2019-03-17T10:18:43.553Z,84.74
2019-03-17T10:21:14.332Z,84.41
2019-03-17T10:23:45.071Z,84.32
2019-03-17T10:26:16.230Z,85.20
2019-03-17T10:28:46.676Z,84.55
2019-03-17T10:31:17.127Z,84.61
2019-03-17T10:33:47.992Z,84.53
2019-03-17T10:36:19.674Z,84.00
2019-03-17T10:38:50.148Z,82.75
2019-03-17T10:41:20.942Z,83.10
2019-03-17T10:43:51.431Z,83.58
2019-03-17T10:46:23.418Z,82.62
2019-03-17T10:48:54.279Z,82.53
2019-03-17T10:51:24.803Z,83.04
2019-03-17T10:53:55.257Z,81.93
2019-03-17T10:56:26.086Z,82.10
2019-03-17T10:58:56.568Z,82.08
2019-03-17T11:01:27.356Z,82.58
2019-03-17T11:03:57.795Z,80.92
2019-03-17T11:06:28.294Z,81.30
2019-03-17T11:08:58.720Z,81.31
2019-03-17T11:11:29.427Z,81.44
2019-03-17T11:13:59.923Z,79.94
2019-03-17T11:16:30.751Z,79.38
2019-03-17T11:19:01.183Z,78.20
2019-03-17T11:21:31.647Z,78.75
2019-03-17T11:24:02.379Z,79.16
2019-03-17T11:26:33.190Z,79.74
2019-03-17T11:29:03.671Z,77.53
2019-03-17T11:31:34.247Z,78.05
2019-03-17T11:34:04.699Z,78.20
2019-03-17T11:36:35.134Z,76.72
2019-03-17T11:39:08.013Z,75.64
2019-03-17T11:41:38.730Z,75.67
2019-03-17T11:44:09.198Z,76.96
2019-03-17T11:46:39.683Z,75.26
2019-03-17T11:49:11.259Z,73.26
2019-03-17T11:51:41.702Z,75.09
2019-03-17T11:54:12.188Z,73.88
2019-03-17T11:56:44.604Z,74.93
2019-03-17T11:59:15.368Z,74.33
2019-03-17T12:01:45.923Z,75.03
2019-03-17T12:04:16.695Z,74.41
2019-03-17T12:06:47.131Z,74.59
2019-03-17T12:09:28.620Z,73.41
2019-03-17T12:11:51.498Z,73.60
2019-03-17T12:14:22.641Z,73.22
2019-03-17T12:16:53.101Z,72.10
2019-03-17T12:19:23.892Z,69.45
2019-03-17T12:21:54.357Z,69.76
2019-03-17T12:24:24.787Z,70.72
2019-03-17T12:26:55.234Z,69.98
2019-03-17T12:29:25.704Z,69.51
2019-03-17T12:31:56.540Z,69.52
2019-03-17T12:34:28.720Z,69.88
2019-03-17T12:36:59.327Z,70.73
2019-03-17T12:39:30.135Z,70.70
2019-03-17T12:42:00.636Z,70.92
2019-03-17T12:44:31.117Z,70.64
2019-03-17T12:47:01.712Z,70.16
2019-03-17T12:49:32.145Z,70.69
2019-03-17T12:52:03.430Z,70.64
2019-03-17T12:54:33.860Z,70.19
2019-03-17T12:57:06.367Z,72.04
2019-03-17T12:59:36.857Z,71.22
2019-03-17T13:02:07.615Z,71.09
2019-03-17T13:04:38.406Z,70.65
2019-03-17T13:07:09.251Z,71.37
2019-03-17T13:09:39.700Z,70.57
2019-03-17T13:12:10.144Z,69.43
2019-03-17T13:14:40.615Z,68.10
2019-03-17T13:17:11.443Z,66.81
2019-03-17T13:19:41.891Z,66.80
2019-03-17T13:22:12.393Z,64.64
2019-03-17T13:24:43.203Z,64.65
2019-03-17T13:27:13.658Z,64.64
2019-03-17T13:29:45.564Z,65.35
2019-03-17T13:32:16.372Z,65.42
2019-03-17T13:34:47.050Z,64.94
2019-03-17T13:37:20.607Z,66.95
2019-03-17T13:39:51.044Z,66.61
2019-03-17T13:42:21.524Z,68.76
2019-03-17T13:44:52.067Z,67.30
2019-03-17T13:47:22.491Z,69.57
2019-03-17T13:49:53.504Z,66.68
2019-03-17T13:52:23.990Z,68.34
2019-03-17T13:54:55.067Z,70.07
2019-03-17T13:57:25.891Z,69.14
2019-03-17T13:59:56.429Z,69.49
2019-03-17T14:02:27.221Z,68.74
2019-03-17T14:04:57.840Z,70.23
2019-03-17T14:07:28.597Z,70.14
2019-03-17T14:09:59.377Z,68.70
2019-03-17T14:12:30.199Z,69.39
2019-03-17T14:15:01.050Z,71.26
2019-03-17T14:17:31.888Z,70.01
2019-03-17T14:20:02.719Z,69.87
2019-03-17T14:22:33.192Z,70.95
2019-03-17T14:25:03.751Z,68.37
2019-03-17T14:27:35.023Z,69.48
2019-03-17T14:30:06.171Z,69.24
2019-03-17T14:32:36.920Z,70.47
2019-03-17T14:35:08.153Z,70.67
2019-03-17T14:37:39.971Z,70.08
2019-03-17T14:40:11.658Z,70.20
2019-03-17T14:42:42.468Z,70.55
2019-03-17T14:45:14.168Z,71.56
2019-03-17T14:47:45.574Z,71.17
2019-03-17T14:50:17.352Z,73.10
2019-03-17T14:52:50.166Z,72.48
2019-03-17T14:55:20.670Z,71.66
2019-03-17T14:57:51.117Z,70.42
2019-03-17T15:00:21.689Z,68.91
2019-03-17T15:02:52.495Z,68.64
2019-03-17T15:05:25.447Z,68.62
2019-03-17T15:07:56.550Z,68.38
2019-03-17T15:10:27.520Z,68.19
2019-03-17T15:12:58.355Z,66.47
2019-03-17T15:15:29.885Z,66.23
2019-03-17T15:18:00.322Z,67.81
2019-03-17T15:20:30.794Z,66.52
2019-03-17T15:23:01.270Z,65.66
2019-03-17T15:25:31.707Z,66.38
2019-03-17T15:28:02.140Z,66.43
2019-03-17T15:30:32.684Z,67.13
2019-03-17T15:33:03.492Z,67.24
2019-03-17T15:35:33.913Z,68.10
2019-03-17T15:38:04.827Z,68.19
2019-03-17T15:40:35.353Z,70.63
2019-03-17T15:43:06.068Z,72.87
2019-03-17T15:45:36.865Z,73.96
2019-03-17T15:48:07.313Z,75.75
2019-03-17T15:50:37.773Z,77.60
2019-03-17T15:53:08.322Z,80.14
2019-03-17T15:55:39.333Z,80.64
2019-03-17T15:58:10.143Z,80.51
2019-03-17T16:00:40.623Z,80.54
2019-03-17T16:03:14.802Z,81.42
2019-03-17T16:05:45.239Z,80.79
2019-03-17T16:08:16.095Z,81.11
2019-03-17T16:10:46.549Z,79.88
2019-03-17T16:13:17.075Z,80.03
2019-03-17T16:15:47.959Z,79.62
2019-03-17T16:18:18.435Z,79.90
2019-03-17T16:20:49.205Z,79.46
2019-03-17T16:23:19.676Z,80.68
2019-03-17T16:25:50.677Z,80.32
2019-03-17T16:28:21.170Z,79.14
2019-03-17T16:30:51.667Z,79.47
2019-03-17T16:33:22.122Z,79.33
2019-03-17T16:35:53.338Z,78.09
2019-03-17T16:38:23.801Z,78.63
2019-03-17T16:40:54.631Z,79.09
2019-03-17T16:43:25.244Z,77.60
2019-03-17T16:45:55.738Z,77.27
2019-03-17T16:48:26.540Z,76.73
2019-03-17T16:50:57.984Z,77.11
2019-03-17T16:53:28.468Z,76.05
2019-03-17T16:55:59.297Z,76.41
2019-03-17T16:58:32.319Z,76.51
2019-03-17T17:01:04.165Z,76.76
2019-03-17T17:03:34.663Z,76.54
2019-03-17T17:06:05.113Z,77.55
2019-03-17T17:08:37.659Z,78.45
2019-03-17T17:11:08.108Z,77.18
2019-03-17T17:13:38.885Z,78.09
2019-03-17T17:16:10.493Z,77.97
2019-03-17T17:18:41.089Z,77.94
2019-03-17T17:21:12.358Z,77.90
2019-03-17T17:23:42.838Z,77.58
2019-03-17T17:26:14.268Z,77.69
2019-03-17T17:28:46.833Z,77.65
2019-03-17T17:31:17.683Z,77.55
2019-03-17T17:33:48.443Z,77.77
2019-03-17T17:36:19.237Z,77.91
2019-03-17T17:38:50.615Z,78.16
2019-03-17T17:41:21.410Z,78.08
2019-03-17T17:43:51.835Z,78.14
2019-03-17T17:46:24.631Z,79.50
2019-03-17T17:48:55.071Z,80.14
2019-03-17T17:51:25.575Z,80.00
2019-03-17T17:53:56.070Z,80.45
2019-03-17T17:56:26.528Z,80.01
2019-03-17T17:58:57.699Z,80.09
2019-03-17T18:01:28.881Z,79.91
2019-03-17T18:03:59.619Z,80.14
2019-03-17T18:06:30.511Z,80.27
2019-03-17T18:09:00.996Z,79.63
2019-03-17T18:11:31.438Z,80.75
2019-03-17T18:14:01.879Z,81.06
2019-03-17T18:16:33.608Z,81.60
2019-03-17T18:19:04.056Z,80.69
2019-03-17T18:21:34.495Z,80.49
2019-03-17T18:24:04.975Z,80.34
2019-03-17T18:26:35.799Z,80.78
2019-03-17T18:29:06.546Z,80.40
2019-03-17T18:31:37.180Z,81.06
2019-03-17T18:34:07.610Z,81.01
2019-03-17T18:36:38.035Z,81.05
2019-03-17T18:39:08.877Z,81.41
2019-03-17T18:41:40.073Z,80.61
2019-03-17T18:44:12.299Z,80.73
2019-03-17T18:46:43.131Z,80.46
2019-03-17T18:49:13.898Z,80.80
2019-03-17T18:51:45.619Z,80.26
2019-03-17T18:54:16.140Z,80.37
2019-03-17T18:56:46.861Z,80.20
2019-03-17T18:59:18.124Z,80.91
2019-03-17T19:01:49.975Z,80.00
2019-03-17T19:04:20.481Z,80.32
2019-03-17T19:06:51.796Z,80.80
2019-03-17T19:09:23.437Z,80.98
2019-03-17T19:11:54.566Z,80.78
2019-03-17T19:14:25.035Z,81.00
2019-03-17T19:16:56.384Z,80.84
2019-03-17T19:19:26.894Z,80.98
2019-03-17T19:21:57.710Z,81.14
2019-03-17T19:24:29.057Z,80.79
2019-03-17T19:26:59.500Z,80.99
2019-03-17T19:29:30.582Z,80.65
2019-03-17T19:32:01.143Z,80.92
2019-03-17T19:34:32.282Z,80.83
2019-03-17T19:37:02.794Z,79.75
2019-03-17T19:39:33.657Z,79.15
2019-03-17T19:42:04.468Z,80.04
2019-03-17T19:44:35.707Z,80.33
2019-03-17T19:47:06.546Z,79.44
2019-03-17T19:49:38.016Z,79.62
2019-03-17T19:52:09.269Z,78.99
2019-03-17T19:54:39.697Z,79.58
2019-03-17T19:57:10.123Z,80.26
2019-03-17T19:59:41.956Z,80.11
2019-03-17T20:02:14.274Z,79.58
2019-03-17T20:04:45.007Z,79.70
2019-03-17T20:07:15.503Z,79.85
2019-03-17T20:09:46.759Z,79.65
2019-03-17T20:12:17.523Z,79.80
2019-03-17T20:14:48.050Z,79.83
2019-03-17T20:17:18.768Z,80.70
2019-03-17T20:19:49.840Z,80.06
2019-03-17T20:22:21.128Z,80.20
2019-03-17T20:24:51.891Z,80.70
2019-03-17T20:27:22.638Z,79.99
2019-03-17T20:29:53.524Z,80.16
2019-03-17T20:32:24.057Z,79.62
2019-03-17T20:34:54.485Z,79.39
2019-03-17T20:37:25.060Z,79.18
2019-03-17T20:39:55.794Z,79.45
2019-03-17T20:42:28.593Z,79.68
2019-03-17T20:44:59.473Z,79.89
2019-03-17T20:47:30.279Z,79.73
2019-03-17T20:50:00.887Z,80.59
2019-03-17T20:52:31.824Z,80.41
2019-03-17T20:55:03.515Z,80.67
2019-03-17T20:57:34.919Z,80.11
2019-03-17T21:00:05.979Z,80.69
2019-03-17T21:02:36.481Z,80.95
2019-03-17T21:05:07.413Z,80.31
2019-03-17T21:07:38.208Z,81.04
2019-03-17T21:10:10.155Z,80.93
2019-03-17T21:12:40.618Z,80.64
2019-03-17T21:15:11.983Z,80.67
2019-03-17T21:17:42.723Z,81.01
2019-03-17T21:20:14.551Z,80.71
2019-03-17T21:22:45.481Z,81.27
2019-03-17T21:25:16.238Z,81.00
2019-03-17T21:27:46.689Z,81.68
2019-03-17T21:30:19.497Z,81.17
2019-03-17T21:32:51.144Z,81.04
2019-03-17T21:35:23.785Z,81.57
2019-03-17T21:37:54.619Z,81.75
2019-03-17T21:40:25.423Z,81.98
2019-03-17T21:42:55.979Z,82.06
2019-03-17T21:45:27.610Z,81.65
2019-03-17T21:47:58.632Z,82.21
2019-03-17T21:50:29.430Z,82.14
2019-03-17T21:52:59.897Z,82.12
2019-03-17T21:55:30.369Z,82.27
2019-03-17T21:58:07.659Z,82.37
2019-03-17T22:00:33.663Z,82.23
2019-03-17T22:03:04.195Z,81.76
2019-03-17T22:05:34.673Z,82.16
2019-03-17T22:08:05.099Z,81.92
2019-03-17T22:10:35.811Z,81.73
2019-03-17T22:13:06.282Z,82.06
2019-03-17T22:15:36.718Z,81.24
2019-03-17T22:18:07.146Z,81.00
2019-03-17T22:20:37.617Z,81.68
2019-03-17T22:23:08.043Z,81.25
2019-03-17T22:25:38.481Z,81.13
2019-03-17T22:28:08.976Z,81.35
2019-03-17T22:30:40.085Z,81.56
2019-03-17T22:33:10.516Z,81.56
2019-03-17T22:35:41.004Z,81.70
2019-03-17T22:38:11.430Z,81.39
2019-03-17T22:40:41.855Z,81.71
2019-03-17T22:43:12.802Z,81.99
2019-03-17T22:45:43.232Z,81.32
2019-03-17T22:48:14.024Z,81.67
2019-03-17T22:50:44.498Z,80.85
2019-03-17T22:53:15.991Z,81.17
2019-03-17T22:55:46.727Z,80.80
2019-03-17T22:58:17.515Z,80.82
2019-03-17T23:00:49.081Z,80.88
2019-03-17T23:03:19.807Z,81.15
2019-03-17T23:05:50.275Z,80.87
2019-03-17T23:08:20.701Z,80.88
2019-03-17T23:10:51.471Z,81.28
2019-03-17T23:13:22.718Z,81.49
2019-03-17T23:15:53.147Z,80.99
2019-03-17T23:18:23.972Z,80.43
2019-03-17T23:20:54.447Z,80.81
2019-03-17T23:23:25.305Z,80.63
2019-03-17T23:25:55.740Z,81.46
2019-03-17T23:28:26.219Z,81.03
2019-03-17T23:30:56.651Z,80.36
2019-03-17T23:33:27.799Z,79.98
2019-03-17T23:35:58.605Z,80.33
2019-03-17T23:38:29.107Z,80.17
2019-03-17T23:41:00.407Z,79.90
2019-03-17T23:43:31.340Z,80.84
2019-03-17T23:46:02.601Z,80.41
2019-03-17T23:48:33.030Z,80.66
2019-03-17T23:51:03.515Z,80.84
2019-03-17T23:53:34.333Z,80.70
2019-03-17T23:56:05.022Z,80.85
2019-03-17T23:58:35.599Z,80.93
